Time;durP1;ratioP1;P1;durP2;ratioP2;P2;SDS_P1;SDS_P2;PMS_P1;PMS_P2;Temp;Humidity;BMP_temperature;BMP_pressure;BME280_temperature;BME280_humidity;BME280_pressure;Samples;Min_cycle;Max_cycle;Signal;HPM_P1;HPM_P2
2022/05/23 00:01:27;;;;;;;1.40;1.30;;;26.70;61.90;;;;;;5074217;28;20445;-83
2022/05/23 00:03:55;;;;;;;1.07;0.93;;;26.70;61.90;;;;;;5074108;28;20441;-85
2022/05/23 00:06:22;;;;;;;1.17;1.07;;;26.70;61.90;;;;;;5073801;28;20469;-86
2022/05/23 00:08:51;;;;;;;1.43;1.33;;;26.70;61.90;;;;;;5073548;28;20448;-85
2022/05/23 00:11:19;;;;;;;1.70;1.60;;;26.70;61.80;;;;;;5074390;28;20476;-85
2022/05/23 00:13:46;;;;;;;1.10;1.00;;;26.70;61.90;;;;;;5075194;28;20456;-83
2022/05/23 00:16:18;;;;;;;1.27;1.17;;;26.70;62.70;;;;;;5073951;28;20451;-88
2022/05/23 00:18:45;;;;;;;1.90;1.50;;;26.70;61.80;;;;;;5073667;28;20441;-83
2022/05/23 00:21:14;;;;;;;3.00;1.30;;;26.70;61.80;;;;;;5073796;28;20441;-83
2022/05/23 00:23:40;;;;;;;1.57;1.30;;;26.70;62.70;;;;;;5073771;28;20946;-85
2022/05/23 00:26:07;;;;;;;1.50;1.40;;;26.70;61.80;;;;;;5074042;28;20444;-89
2022/05/23 00:28:34;;;;;;;1.37;1.27;;;26.70;61.80;;;;;;5073886;28;20814;-86
2022/05/23 00:31:01;;;;;;;1.40;1.20;;;26.70;61.80;;;;;;5073761;28;20434;-84
2022/05/23 00:36:13;;;;;;;1.33;1.23;;;26.70;61.70;;;;;;5073251;28;20417;-83
2022/05/23 00:38:40;;;;;;;1.47;1.37;;;26.70;61.80;;;;;;5073633;28;20441;-86
2022/05/23 00:44:05;;;;;;;1.10;1.00;;;26.70;61.80;;;;;;5073203;28;20441;-83
2022/05/23 00:46:34;;;;;;;1.30;1.20;;;26.70;61.80;;;;;;5073484;28;20520;-83
2022/05/23 00:49:03;;;;;;;1.20;1.00;;;26.70;61.80;;;;;;5075667;28;20445;-83
2022/05/23 00:51:33;;;;;;;1.97;1.53;;;26.70;61.80;;;;;;5080494;28;20477;-87
2022/05/23 00:54:01;;;;;;;1.23;1.13;;;26.70;61.70;;;;;;5073857;28;20440;-83
2022/05/23 00:56:38;;;;;;;1.23;1.10;;;26.70;61.70;;;;;;5073390;28;20444;-83
2022/05/23 00:59:06;;;;;;;1.40;1.10;;;26.70;61.70;;;;;;5073574;28;20443;-89
2022/05/23 01:01:36;;;;;;;1.53;1.33;;;26.70;61.70;;;;;;5073373;28;20440;-84
2022/05/23 01:04:04;;;;;;;1.33;1.23;;;26.70;61.80;;;;;;5073291;28;20459;-83
2022/05/23 01:06:32;;;;;;;1.80;1.10;;;26.70;61.70;;;;;;5073360;28;20437;-83
2022/05/23 01:08:59;;;;;;;1.50;1.40;;;26.70;61.70;;;;;;5073286;28;20970;-84
2022/05/23 01:11:27;;;;;;;1.20;1.10;;;26.70;61.70;;;;;;5073488;28;20473;-88
2022/05/23 01:13:54;;;;;;;1.73;1.40;;;26.70;61.70;;;;;;5072652;28;20476;-87
2022/05/23 01:16:22;;;;;;;1.40;1.30;;;26.60;61.60;;;;;;5078391;28;20444;-87
2022/05/23 01:18:49;;;;;;;1.57;1.20;;;26.60;61.60;;;;;;5092940;28;20517;-84
2022/05/23 01:21:28;;;;;;;1.03;0.90;;;26.60;61.60;;;;;;5093376;28;20808;-87
2022/05/23 01:24:04;;;;;;;1.40;1.10;;;26.70;61.70;;;;;;5091521;28;20451;-82
2022/05/23 01:26:34;;;;;;;2.07;1.43;;;26.60;61.60;;;;;;5093588;28;20783;-82
2022/05/23 01:29:01;;;;;;;1.30;1.03;;;26.60;61.60;;;;;;5093302;28;20443;-82
2022/05/23 01:31:28;;;;;;;1.20;1.10;;;26.60;61.60;;;;;;5093385;28;20467;-83
2022/05/23 01:33:54;;;;;;;1.10;1.00;;;26.70;61.70;;;;;;5093078;28;20432;-87
2022/05/23 01:36:21;;;;;;;1.20;1.10;;;26.60;61.60;;;;;;5093267;28;20480;-82
2022/05/23 01:38:48;;;;;;;1.50;1.20;;;26.60;62.50;;;;;;5093295;28;20436;-82
2022/05/23 01:41:15;;;;;;;1.13;1.00;;;26.60;61.60;;;;;;5093392;28;20436;-88
2022/05/23 01:43:43;;;;;;;1.30;1.20;;;26.60;61.60;;;;;;5093146;28;20460;-82
2022/05/23 01:46:10;;;;;;;1.30;1.20;;;26.60;61.60;;;;;;5092946;28;20468;-82
2022/05/23 01:48:37;;;;;;;1.40;1.20;;;26.70;61.70;;;;;;5095080;28;20436;-88
2022/05/23 01:51:04;;;;;;;1.20;1.10;;;26.60;61.60;;;;;;5097160;28;20440;-89
2022/05/23 01:53:30;;;;;;;1.30;1.10;;;26.60;61.60;;;;;;5096914;28;20486;-83
2022/05/23 01:55:58;;;;;;;1.37;1.10;;;26.60;61.50;;;;;;5096840;28;20428;-88
2022/05/23 02:01:16;;;;;;;1.20;1.10;;;26.60;61.50;;;;;;5095970;28;20764;-83
2022/05/23 02:03:44;;;;;;;1.67;1.57;;;26.60;61.60;;;;;;5096812;28;20438;-83
2022/05/23 02:06:11;;;;;;;1.40;1.20;;;26.60;61.60;;;;;;5096825;28;20444;-83
2022/05/23 02:08:38;;;;;;;1.67;1.20;;;26.60;61.60;;;;;;5087329;28;20808;-83
2022/05/23 02:11:06;;;;;;;3.20;1.57;;;26.60;61.60;;;;;;5076124;28;20809;-83
2022/05/23 02:13:34;;;;;;;1.33;1.23;;;26.60;61.60;;;;;;5076205;28;20476;-83
2022/05/23 02:16:02;;;;;;;1.20;1.10;;;26.60;61.60;;;;;;5074890;28;20433;-83
2022/05/23 02:18:30;;;;;;;1.33;1.17;;;26.50;61.50;;;;;;5082876;28;20436;-83
2022/05/23 02:20:58;;;;;;;1.30;1.00;;;26.60;61.60;;;;;;5096339;28;20444;-83
2022/05/23 02:23:25;;;;;;;1.20;1.10;;;26.60;61.60;;;;;;5096453;28;20922;-88
2022/05/23 02:25:52;;;;;;;1.20;1.10;;;26.60;61.60;;;;;;5096019;28;20436;-82
2022/05/23 02:28:19;;;;;;;1.10;1.00;;;26.60;61.60;;;;;;5096046;28;20432;-83
2022/05/23 02:30:47;;;;;;;1.30;1.20;;;26.60;61.60;;;;;;5096095;28;20438;-83
2022/05/23 02:33:14;;;;;;;1.30;1.10;;;26.60;61.60;;;;;;5096106;28;20935;-82
2022/05/23 02:35:43;;;;;;;1.30;1.20;;;26.60;61.60;;;;;;5096005;28;20451;-83
2022/05/23 02:38:10;;;;;;;1.10;1.00;;;26.60;61.60;;;;;;5094778;28;20439;-88
2022/05/23 02:40:37;;;;;;;1.63;1.40;;;26.60;61.60;;;;;;5095892;28;20458;-84
2022/05/23 02:43:04;;;;;;;1.20;1.10;;;26.60;61.60;;;;;;5095633;28;20490;-83
2022/05/23 02:45:30;;;;;;;1.50;1.33;;;26.60;61.60;;;;;;5095486;28;21000;-83
2022/05/23 02:47:57;;;;;;;1.20;1.10;;;26.60;61.60;;;;;;5095196;28;20440;-82
2022/05/23 02:50:24;;;;;;;1.13;1.03;;;26.60;61.60;;;;;;5095776;28;20455;-86
2022/05/23 02:52:55;;;;;;;1.20;1.10;;;26.60;61.60;;;;;;5095371;28;20483;-83
2022/05/23 02:55:22;;;;;;;1.20;1.10;;;26.60;61.60;;;;;;5095818;28;20439;-84
2022/05/23 02:57:48;;;;;;;1.30;1.20;;;26.60;61.60;;;;;;5093347;28;20431;-89
2022/05/23 03:00:16;;;;;;;1.30;1.20;;;26.60;61.60;;;;;;5075232;28;20440;-85
2022/05/23 03:05:27;;;;;;;2.47;1.27;;;26.50;61.50;;;;;;5075225;28;20977;-83
2022/05/23 03:07:55;;;;;;;1.20;1.10;;;26.50;61.50;;;;;;5074995;28;20433;-87
2022/05/23 03:10:22;;;;;;;1.30;1.20;;;26.50;61.50;;;;;;5075187;28;20433;-83
2022/05/23 03:12:49;;;;;;;1.30;1.20;;;26.50;61.50;;;;;;5074976;28;20488;-83
2022/05/23 03:15:16;;;;;;;1.40;1.30;;;26.50;61.50;;;;;;5075161;28;20440;-86
2022/05/23 03:17:43;;;;;;;1.43;1.33;;;26.50;61.50;;;;;;5075468;28;20472;-82
2022/05/23 03:20:11;;;;;;;1.20;1.10;;;26.50;61.50;;;;;;5075091;28;20440;-86
2022/05/23 03:28:08;;;;;;;1.23;1.13;;;26.50;61.60;;;;;;5095081;28;20422;-86
2022/05/23 03:30:36;;;;;;;1.20;1.10;;;26.50;61.60;;;;;;5095236;28;20436;-88
2022/05/23 03:33:03;;;;;;;1.50;1.40;;;26.50;61.50;;;;;;5094926;28;20579;-82
2022/05/23 03:35:31;;;;;;;1.37;1.27;;;26.50;61.50;;;;;;5094858;28;20436;-83
2022/05/23 03:37:58;;;;;;;1.50;1.20;;;26.50;61.50;;;;;;5094894;28;20443;-83
2022/05/23 03:40:26;;;;;;;1.40;1.30;;;26.50;61.50;;;;;;5096083;28;20439;-80
2022/05/23 03:42:53;;;;;;;1.73;1.30;;;26.50;61.50;;;;;;5103894;28;20467;-83
2022/05/23 03:45:20;;;;;;;1.40;1.30;;;26.50;61.50;;;;;;5103056;28;20480;-86
2022/05/23 03:47:47;;;;;;;1.30;1.20;;;26.60;61.50;;;;;;5098784;28;20440;-83
2022/05/23 03:50:14;;;;;;;1.47;1.37;;;26.50;61.50;;;;;;5101747;28;20462;-80
2022/05/23 03:52:41;;;;;;;1.30;1.20;;;26.50;61.40;;;;;;5092116;28;20515;-83
2022/05/23 03:55:08;;;;;;;1.50;1.40;;;26.50;61.50;;;;;;5074823;28;20460;-88
2022/05/23 03:57:37;;;;;;;1.77;1.50;;;26.50;61.50;;;;;;5073122;28;20441;-84
2022/05/23 04:00:06;;;;;;;1.10;0.90;;;26.50;61.50;;;;;;5074312;28;20469;-82
2022/05/23 04:02:33;;;;;;;1.40;1.17;;;26.50;61.50;;;;;;5073919;28;20487;-88
2022/05/23 04:05:00;;;;;;;1.33;1.20;;;26.50;61.50;;;;;;5074049;28;20951;-84
2022/05/23 04:07:27;;;;;;;1.50;1.40;;;26.50;61.50;;;;;;5074204;28;20464;-83
2022/05/23 04:09:54;;;;;;;1.30;1.20;;;26.50;61.50;;;;;;5074021;28;20440;-88
2022/05/23 04:12:21;;;;;;;1.50;1.40;;;26.50;61.50;;;;;;5073294;28;20571;-87
2022/05/23 04:14:49;;;;;;;1.30;1.20;;;26.50;61.50;;;;;;5074335;28;20445;-83
2022/05/23 04:17:16;;;;;;;1.40;1.30;;;26.50;61.50;;;;;;5073909;28;20441;-88
2022/05/23 04:19:42;;;;;;;1.30;1.00;;;26.50;61.50;;;;;;5092521;28;20448;-84
2022/05/23 04:22:09;;;;;;;1.17;1.07;;;26.50;61.50;;;;;;5093923;28;20440;-89
2022/05/23 04:24:36;;;;;;;1.80;1.70;;;26.50;62.30;;;;;;5090534;28;20463;-83
2022/05/23 04:27:03;;;;;;;1.30;1.13;;;26.50;61.50;;;;;;5073676;28;20433;-84
2022/05/23 04:29:29;;;;;;;1.20;1.10;;;26.50;61.50;;;;;;5073709;28;20951;-86
2022/05/23 04:31:58;;;;;;;1.30;1.20;;;26.60;61.60;;;;;;5073828;28;20444;-88
2022/05/23 04:37:08;;;;;;;1.27;1.17;;;26.60;61.60;;;;;;5073290;28;20428;-91
2022/05/23 04:39:35;;;;;;;1.40;1.30;;;26.60;61.70;;;;;;5073677;28;20438;-84
2022/05/23 04:42:03;;;;;;;1.33;1.23;;;26.50;61.60;;;;;;5077586;28;20436;-82
2022/05/23 04:44:30;;;;;;;1.50;1.37;;;26.50;61.50;;;;;;5093481;28;20529;-84
2022/05/23 04:49:45;;;;;;;1.30;1.20;;;26.50;61.40;;;;;;5073569;28;20400;-87
2022/05/23 04:52:14;;;;;;;1.50;1.10;;;26.50;61.50;;;;;;5076206;28;20470;-87
2022/05/23 04:54:41;;;;;;;1.33;1.23;;;26.50;61.50;;;;;;5093577;28;20442;-87
2022/05/23 04:57:09;;;;;;;1.17;1.07;;;26.50;61.50;;;;;;5080700;28;20444;-87
2022/05/23 04:59:37;;;;;;;1.57;1.47;;;26.50;61.60;;;;;;5073148;28;20943;-83
2022/05/23 05:02:06;;;;;;;1.50;1.40;;;26.50;61.60;;;;;;5072051;28;20441;-87
2022/05/23 05:04:33;;;;;;;1.43;1.33;;;26.50;61.60;;;;;;5073266;28;20546;-83
2022/05/23 05:07:00;;;;;;;2.00;1.33;;;26.50;61.60;;;;;;5073193;28;20940;-87
2022/05/23 05:09:26;;;;;;;1.90;1.47;;;26.50;61.70;;;;;;5073795;28;20460;-88
2022/05/23 05:11:53;;;;;;;1.20;1.10;;;26.50;61.70;;;;;;5073441;28;20437;-88
2022/05/23 05:14:20;;;;;;;1.50;1.40;;;26.50;61.70;;;;;;5072864;28;20488;-87
2022/05/23 05:16:47;;;;;;;1.57;1.47;;;26.50;61.70;;;;;;5087513;28;20819;-87
2022/05/23 05:19:15;;;;;;;1.80;1.70;;;26.50;61.60;;;;;;5093504;28;20444;-87
2022/05/23 05:21:42;;;;;;;1.63;1.53;;;26.50;61.50;;;;;;5093893;28;20440;-86
2022/05/23 05:24:09;;;;;;;1.57;1.40;;;26.50;61.40;;;;;;5097641;28;20456;-86
2022/05/23 05:26:36;;;;;;;1.67;1.57;;;26.50;61.40;;;;;;5097230;28;20495;-86
2022/05/23 05:29:03;;;;;;;4.03;2.77;;;26.50;61.40;;;;;;5097354;28;20443;-86
2022/05/23 05:31:36;;;;;;;3.77;3.17;;;26.40;61.30;;;;;;5097174;28;20442;-89
2022/05/23 05:34:09;;;;;;;4.50;2.93;;;26.30;61.00;;;;;;5097281;28;20858;-86
2022/05/23 05:36:42;;;;;;;2.90;2.70;;;26.20;61.00;;;;;;5097437;28;20752;-86
2022/05/23 05:39:09;;;;;;;3.87;3.23;;;26.30;61.30;;;;;;5097685;28;20424;-86
2022/05/23 05:41:41;;;;;;;5.17;3.00;;;26.10;61.20;;;;;;5097022;28;20937;-86
2022/05/23 05:44:13;;;;;;;10.53;3.90;;;26.10;61.20;;;;;;5096625;28;20484;-85
2022/05/23 05:46:43;;;;;;;4.43;2.87;;;26.10;61.50;;;;;;5097553;28;20883;-85
2022/05/23 05:49:16;;;;;;;6.80;3.13;;;26.10;61.90;;;;;;5097136;28;20443;-85
2022/05/23 05:51:45;;;;;;;6.03;3.40;;;26.10;62.00;;;;;;5096966;28;20444;-86
2022/05/23 05:54:16;;;;;;;4.07;3.67;;;26.10;62.30;;;;;;5097016;28;20839;-86
2022/05/23 05:56:45;;;;;;;4.77;3.47;;;26.00;62.40;;;;;;5097012;28;20428;-85
2022/05/23 05:59:12;;;;;;;10.07;3.77;;;25.90;62.50;;;;;;5096750;28;20523;-85
2022/05/23 06:01:40;;;;;;;3.53;3.23;;;26.00;62.60;;;;;;5097471;28;20439;-85
2022/05/23 06:04:08;;;;;;;6.27;3.40;;;26.00;62.70;;;;;;5099478;28;20439;-86
2022/05/23 06:12:05;;;;;;;3.70;3.03;;;25.90;62.90;;;;;;5096262;28;20419;-88
2022/05/23 06:14:31;;;;;;;6.50;3.00;;;25.90;63.00;;;;;;5096101;28;20578;-87
2022/05/23 06:16:58;;;;;;;3.57;3.20;;;25.90;63.00;;;;;;5095856;28;20450;-87
2022/05/23 06:19:25;;;;;;;3.40;3.20;;;25.90;63.40;;;;;;5096115;28;20840;-87
2022/05/23 06:21:52;;;;;;;5.57;3.07;;;25.90;63.30;;;;;;5096332;28;20444;-87
2022/05/23 06:24:20;;;;;;;4.90;2.60;;;25.90;63.20;;;;;;5096054;28;20440;-87
2022/05/23 06:26:47;;;;;;;5.57;3.03;;;25.90;63.20;;;;;;5096047;28;20450;-88
2022/05/23 06:29:13;;;;;;;4.03;2.73;;;25.90;63.30;;;;;;5095660;28;20436;-82
2022/05/23 06:31:41;;;;;;;7.43;3.57;;;26.00;63.80;;;;;;5095902;28;20444;-90
2022/05/23 06:34:09;;;;;;;4.60;3.70;;;26.00;63.70;;;;;;5094939;28;20487;-90
2022/05/23 06:36:37;;;;;;;3.63;3.33;;;26.00;63.90;;;;;;5086941;28;20444;-82
2022/05/23 06:39:03;;;;;;;7.43;3.50;;;26.00;64.10;;;;;;5075100;28;20463;-82
2022/05/23 06:41:32;;;;;;;5.33;3.10;;;26.00;64.30;;;;;;5075343;28;20444;-87
2022/05/23 06:43:59;;;;;;;7.70;3.40;;;26.00;64.20;;;;;;5074914;28;20464;-87
2022/05/23 06:46:25;;;;;;;10.97;3.17;;;25.90;64.50;;;;;;5075571;28;20440;-87
2022/05/23 06:48:53;;;;;;;3.13;2.50;;;26.00;64.70;;;;;;5075364;28;20441;-87
2022/05/23 06:51:20;;;;;;;3.20;2.53;;;26.00;64.70;;;;;;5075208;28;20449;-87
2022/05/23 06:53:47;;;;;;;4.23;2.80;;;25.90;64.40;;;;;;5075291;28;20492;-87
2022/05/23 06:56:14;;;;;;;3.53;2.67;;;25.90;64.60;;;;;;5075313;28;20631;-87
2022/05/23 06:58:42;;;;;;;4.47;2.70;;;25.90;64.20;;;;;;5075350;28;20966;-87
2022/05/23 07:01:11;;;;;;;3.73;2.40;;;26.00;64.20;;;;;;5075062;28;20453;-87
2022/05/23 07:03:37;;;;;;;143.80;16.20;;;26.00;63.80;;;;;;5074661;28;20514;-87
2022/05/23 07:14:21;;;;;;;76.37;10.77;;;26.10;63.90;;;;;;5074541;28;20502;-87
2022/05/23 07:16:48;;;;;;;51.33;8.00;;;26.10;63.80;;;;;;5074500;28;20450;-87
2022/05/23 07:19:15;;;;;;;49.00;9.07;;;26.20;63.80;;;;;;5075125;28;20445;-87
2022/05/23 07:21:42;;;;;;;54.93;8.23;;;26.30;63.90;;;;;;5074929;28;20450;-87
2022/05/23 07:24:09;;;;;;;53.13;7.73;;;26.20;64.10;;;;;;5074720;28;20437;-87
2022/05/23 07:26:37;;;;;;;49.93;7.10;;;26.20;63.90;;;;;;5074832;28;20441;-87
2022/05/23 07:29:04;;;;;;;44.43;7.43;;;26.30;64.40;;;;;;5074567;28;21012;-87
2022/05/23 07:31:32;;;;;;;29.70;5.00;;;26.40;64.60;;;;;;5074609;28;20463;-87
2022/05/23 07:33:59;;;;;;;42.03;5.50;;;26.30;64.20;;;;;;5074468;28;20492;-87
2022/05/23 07:36:26;;;;;;;27.50;5.57;;;26.30;64.70;;;;;;5074882;28;20437;-87
2022/05/23 07:38:53;;;;;;;28.73;4.90;;;26.30;64.70;;;;;;5074310;28;20437;-87
2022/05/23 07:41:20;;;;;;;20.97;4.70;;;26.40;64.70;;;;;;5074274;28;20797;-87
2022/05/23 07:43:47;;;;;;;25.67;4.80;;;26.40;64.30;;;;;;5074069;28;20476;-88
2022/05/23 07:46:15;;;;;;;31.93;5.03;;;26.40;64.00;;;;;;5073312;28;20456;-87
2022/05/23 07:48:46;;;;;;;16.20;4.53;;;26.40;63.80;;;;;;5074345;28;20449;-87
2022/05/23 07:51:14;;;;;;;18.27;4.73;;;26.40;64.00;;;;;;5073998;28;20453;-87
2022/05/23 08:01:53;;;;;;;6.60;3.00;;;26.50;64.60;;;;;;5072611;28;20571;-82
2022/05/23 08:04:22;;;;;;;10.00;3.67;;;26.50;63.80;;;;;;5072224;28;20448;-82
2022/05/23 08:06:49;;;;;;;8.23;2.73;;;26.50;63.50;;;;;;5072443;28;21161;-82
2022/05/23 08:09:17;;;;;;;11.23;3.60;;;26.50;63.50;;;;;;5072494;28;20991;-82
2022/05/23 08:11:47;;;;;;;13.07;3.17;;;26.60;63.50;;;;;;5073470;28;20852;-82
2022/05/23 08:14:15;;;;;;;11.23;3.13;;;26.60;63.30;;;;;;5072531;28;20526;-82
2022/05/23 08:16:41;;;;;;;15.53;3.43;;;26.60;63.20;;;;;;5073585;28;20437;-84
2022/05/23 08:19:09;;;;;;;10.30;2.97;;;26.70;63.30;;;;;;5073278;28;20444;-83
2022/05/23 08:21:43;;;;;;;4.20;2.40;;;26.70;63.20;;;;;;5073385;28;20524;-83
2022/05/23 08:24:10;;;;;;;6.40;2.67;;;26.70;63.20;;;;;;5073251;28;20436;-83
2022/05/23 08:26:37;;;;;;;9.60;3.00;;;26.70;63.10;;;;;;5073379;28;20815;-84
2022/05/23 08:29:04;;;;;;;5.33;2.93;;;26.70;63.00;;;;;;5073337;28;20448;-83
2022/05/23 08:31:31;;;;;;;7.23;2.60;;;26.70;63.00;;;;;;5073331;28;20444;-83
2022/05/23 08:33:57;;;;;;;7.00;2.93;;;26.80;63.20;;;;;;5072909;28;21006;-83
2022/05/23 08:36:24;;;;;;;9.00;3.17;;;26.80;63.10;;;;;;5071499;28;20433;-84
2022/05/23 08:38:52;;;;;;;10.87;2.40;;;26.80;63.10;;;;;;5069796;28;20464;-83
2022/05/23 08:41:24;;;;;;;3.73;2.27;;;26.80;63.10;;;;;;5070934;28;20444;-84
2022/05/23 08:43:53;;;;;;;11.10;2.83;;;26.80;63.10;;;;;;5070720;28;20469;-83
2022/05/23 08:46:26;;;;;;;5.97;2.63;;;26.90;63.30;;;;;;5071018;28;20439;-83
2022/05/23 08:49:02;;;;;;;5.87;3.40;;;26.90;63.20;;;;;;5070995;28;20433;-84
2022/05/23 08:51:38;;;;;;;10.40;2.30;;;26.90;63.20;;;;;;5072330;28;20440;-83
2022/05/23 08:54:17;;;;;;;4.07;2.30;;;26.90;63.20;;;;;;5073044;28;20480;-84
2022/05/23 08:56:50;;;;;;;10.20;2.33;;;26.90;63.20;;;;;;5072936;28;20444;-83
2022/05/23 08:59:25;;;;;;;5.97;2.97;;;26.90;63.30;;;;;;5073255;28;20437;-84
2022/05/23 09:01:55;;;;;;;7.20;2.60;;;26.90;63.30;;;;;;5073165;28;20446;-84
2022/05/23 09:04:34;;;;;;;5.60;2.20;;;27.00;63.30;;;;;;5073039;28;20445;-84
2022/05/23 09:07:03;;;;;;;5.47;2.50;;;27.00;63.30;;;;;;5073252;28;20884;-84
2022/05/23 09:09:34;;;;;;;2.57;1.90;;;27.00;63.30;;;;;;5091881;28;20448;-87
2022/05/23 09:12:06;;;;;;;5.33;2.30;;;27.00;63.40;;;;;;5093575;28;20828;-86
2022/05/23 09:14:33;;;;;;;3.03;1.83;;;27.00;63.70;;;;;;5093524;28;20576;-86
2022/05/23 09:34:05;;;;;;;3.53;2.70;;;26.90;63.80;;;;;;5050638;28;20935;-82
2022/05/23 09:36:36;;;;;;;7.53;2.17;;;27.00;64.10;;;;;;5050862;28;20446;-82
2022/05/23 09:39:07;;;;;;;3.33;1.77;;;27.00;64.40;;;;;;5015055;28;20458;-83
2022/05/23 09:49:55;;;;;;;2.67;1.90;;;27.10;64.00;;;;;;5032954;28;20453;-84
2022/05/23 09:52:29;;;;;;;3.63;1.90;;;27.10;63.80;;;;;;5070033;28;20440;-84
2022/05/23 09:54:58;;;;;;;3.00;2.30;;;27.10;63.60;;;;;;5075006;28;20481;-84
2022/05/23 09:57:27;;;;;;;4.73;2.33;;;27.10;63.30;;;;;;5092935;28;20451;-84
2022/05/23 10:00:00;;;;;;;2.70;2.13;;;27.20;63.30;;;;;;5093028;28;20933;-85
2022/05/23 10:02:38;;;;;;;2.30;2.10;;;27.20;63.30;;;;;;5092878;28;20451;-82
2022/05/23 10:05:21;;;;;;;5.60;2.20;;;27.20;63.40;;;;;;5072945;28;20449;-86
2022/05/23 10:07:54;;;;;;;2.43;2.03;;;27.20;63.60;;;;;;5072412;28;20437;-86
2022/05/23 10:10:23;;;;;;;2.27;2.13;;;27.20;63.80;;;;;;5074917;28;20498;-87
2022/05/23 10:12:50;;;;;;;4.97;2.33;;;27.30;63.80;;;;;;5075996;28;20556;-87
2022/05/23 10:15:24;;;;;;;3.60;2.13;;;27.30;63.60;;;;;;5075970;28;20982;-87
2022/05/23 10:18:02;;;;;;;2.40;2.20;;;27.30;63.50;;;;;;5076101;28;20916;-86
2022/05/23 10:20:35;;;;;;;3.50;2.33;;;27.30;63.40;;;;;;5074703;28;20789;-86
2022/05/23 10:23:04;;;;;;;2.20;2.00;;;27.30;63.50;;;;;;5085562;28;20443;-86
2022/05/23 10:25:37;;;;;;;2.17;1.60;;;27.30;63.50;;;;;;5096120;28;20451;-86
2022/05/23 10:28:11;;;;;;;2.67;1.50;;;27.30;63.60;;;;;;5084766;28;20850;-86
2022/05/23 10:30:40;;;;;;;3.67;1.90;;;27.30;63.60;;;;;;5076173;28;20448;-86
2022/05/23 10:33:10;;;;;;;2.83;1.70;;;27.30;63.60;;;;;;5078265;28;20440;-91
2022/05/23 10:35:44;;;;;;;2.60;1.83;;;27.30;63.40;;;;;;5084994;28;20480;-83
2022/05/23 10:43:58;;;;;;;2.40;2.20;;;27.30;63.60;;;;;;5090474;28;20431;-83
2022/05/23 10:46:27;;;;;;;2.70;1.60;;;27.40;63.60;;;;;;5097912;28;20436;-87
2022/05/23 10:49:04;;;;;;;1.93;1.70;;;27.40;63.60;;;;;;5095654;28;20531;-83
2022/05/23 10:51:41;;;;;;;1.70;1.40;;;27.40;63.50;;;;;;5094736;28;20440;-83
2022/05/23 10:54:30;;;;;;;3.33;2.30;;;27.40;63.50;;;;;;5076851;28;20483;-85
2022/05/23 10:57:10;;;;;;;2.00;1.77;;;27.50;63.50;;;;;;5075400;28;20468;-85
2022/05/23 10:59:42;;;;;;;5.37;2.00;;;27.50;63.30;;;;;;5091846;28;20455;-85
2022/05/23 11:02:32;;;;;;;2.03;1.83;;;27.50;63.10;;;;;;5095579;28;20455;-84
2022/05/23 11:05:10;;;;;;;5.10;1.93;;;27.50;63.10;;;;;;5095189;28;20448;-86
2022/05/23 11:07:50;;;;;;;2.23;1.80;;;27.50;63.20;;;;;;5094514;28;20477;-87
2022/05/23 11:10:25;;;;;;;2.90;1.67;;;27.50;63.00;;;;;;5075044;28;20445;-87
2022/05/23 11:13:04;;;;;;;2.40;2.00;;;27.50;62.90;;;;;;5075073;28;20456;-86
2022/05/23 11:22:16;;;;;;;4.07;3.53;;;27.50;63.10;;;;;;5052186;28;20441;-82
2022/05/23 11:24:53;;;;;;;6.23;2.80;;;27.50;63.50;;;;;;5049366;28;20539;-82
2022/05/23 11:35:48;;;;;;;2.30;2.10;;;27.50;63.80;;;;;;5039752;28;20497;-82
2022/05/23 11:38:16;;;;;;;4.73;2.00;;;27.60;63.80;;;;;;5048406;28;20883;-84
2022/05/23 11:41:07;;;;;;;4.63;2.60;;;27.60;63.80;;;;;;5051324;28;20442;-82
2022/05/23 11:43:34;;;;;;;4.07;2.30;;;27.70;63.70;;;;;;5050498;28;20453;-81
2022/05/23 11:46:02;;;;;;;1.90;1.70;;;27.60;63.70;;;;;;5050736;28;20520;-81
2022/05/23 11:48:48;;;;;;;3.30;2.00;;;27.70;63.80;;;;;;5050751;28;20485;-79
2022/05/23 11:51:25;;;;;;;2.17;1.97;;;27.70;63.80;;;;;;5071051;28;20833;-80
2022/05/23 11:54:01;;;;;;;9.27;2.83;;;27.70;63.80;;;;;;5073638;28;20441;-84
2022/05/23 11:57:12;;;;;;;3.60;3.00;;;27.80;63.90;;;;;;5073318;28;20497;-85
2022/05/23 12:00:04;;;;;;;5.27;3.33;;;27.80;63.20;;;;;;5073673;28;20441;-81
2022/05/23 12:02:33;;;;;;;5.20;3.10;;;27.70;63.40;;;;;;5072526;28;20445;-81
2022/05/23 12:05:30;;;;;;;6.83;2.93;;;27.70;64.10;;;;;;5082309;28;20803;-85
2022/05/23 12:08:06;;;;;;;4.00;3.47;;;27.80;64.20;;;;;;5089224;28;20848;-85
2022/05/23 12:10:54;;;;;;;3.67;3.37;;;27.70;63.90;;;;;;5094164;28;20440;-88
2022/05/23 12:13:39;;;;;;;4.87;3.97;;;27.70;63.40;;;;;;5093531;28;21002;-87
2022/05/23 12:16:38;;;;;;;5.23;3.40;;;27.80;63.60;;;;;;5093840;28;20476;-86
2022/05/23 12:19:27;;;;;;;5.77;4.10;;;27.70;63.50;;;;;;5093679;28;20446;-88
2022/05/23 13:22:12;;;;;;;2.53;2.33;;;27.10;65.10;;;;;;5049581;28;20452;-87
2022/05/23 13:28:49;;;;;;;2.43;1.50;;;27.20;65.20;;;;;;4972788;28;20805;-87
2022/05/23 13:31:26;;;;;;;3.90;2.20;;;27.20;65.20;;;;;;4972865;28;20445;-90
2022/05/23 13:33:57;;;;;;;2.57;2.00;;;27.10;65.10;;;;;;5033018;28;20521;-88
2022/05/23 13:36:25;;;;;;;2.47;2.27;;;27.20;65.20;;;;;;5032959;28;20486;-82
2022/05/23 13:39:02;;;;;;;3.03;2.03;;;27.20;65.20;;;;;;5033111;28;20465;-82
2022/05/23 13:41:30;;;;;;;2.90;2.23;;;27.20;65.20;;;;;;5033207;28;20462;-83
2022/05/23 13:43:58;;;;;;;2.37;2.00;;;27.20;65.30;;;;;;5033879;28;20501;-82
2022/05/23 13:46:28;;;;;;;2.73;2.20;;;27.20;65.30;;;;;;5036167;28;21060;-82
2022/05/23 13:49:00;;;;;;;2.93;1.70;;;27.20;65.20;;;;;;5036552;28;20450;-82
2022/05/23 13:51:32;;;;;;;6.80;2.20;;;27.20;65.30;;;;;;5036440;28;20481;-85
2022/05/23 13:54:06;;;;;;;4.47;2.03;;;27.20;65.30;;;;;;5035056;28;20443;-90
2022/05/23 13:56:35;;;;;;;3.07;1.70;;;27.20;66.50;;;;;;5036399;28;20483;-85
2022/05/23 13:59:07;;;;;;;3.73;2.10;;;27.20;66.30;;;;;;5036327;28;20454;-85
2022/05/23 14:21:32;;;;;;;7.00;5.47;;;27.10;67.60;;;;;;5040846;28;20841;-81
2022/05/23 14:24:00;;;;;;;11.20;5.47;;;27.10;67.50;;;;;;5069512;28;20567;-78
2022/05/23 14:26:28;;;;;;;17.50;6.30;;;27.10;67.10;;;;;;5093132;28;20806;-84
2022/05/23 14:28:57;;;;;;;10.00;5.27;;;27.20;67.10;;;;;;5078360;28;20788;-80
2022/05/23 14:31:42;;;;;;;12.87;5.83;;;27.20;67.00;;;;;;5075837;28;20444;-84
2022/05/23 14:34:14;;;;;;;9.33;5.07;;;27.20;67.00;;;;;;5076077;28;20441;-84
2022/05/23 14:36:56;;;;;;;11.10;4.93;;;27.20;68.30;;;;;;5076307;28;20489;-87
2022/05/23 14:39:26;;;;;;;10.10;5.60;;;27.20;67.90;;;;;;5075771;28;20536;-91
2022/05/23 14:41:54;;;;;;;6.37;4.87;;;27.20;68.40;;;;;;5076034;28;20464;-92
2022/05/23 14:44:32;;;;;;;13.10;6.47;;;27.20;69.00;;;;;;5075512;28;20806;-79
2022/05/23 14:47:02;;;;;;;13.80;6.20;;;27.30;68.20;;;;;;5075687;28;20535;-79
2022/05/23 14:49:32;;;;;;;10.00;5.37;;;27.20;67.60;;;;;;5075546;28;20436;-79
2022/05/23 14:52:14;;;;;;;11.03;5.10;;;27.20;67.50;;;;;;5075635;28;20440;-80
2022/05/23 15:03:07;;;;;;;9.43;4.87;;;27.30;68.90;;;;;;5075505;28;20417;-79
2022/05/23 15:05:34;;;;;;;7.00;4.60;;;27.30;69.00;;;;;;5075132;28;20453;-80
2022/05/23 15:08:03;;;;;;;14.87;4.87;;;27.30;69.10;;;;;;5075202;28;20444;-79
2022/05/23 15:10:32;;;;;;;9.60;4.40;;;27.30;68.90;;;;;;5074974;28;20441;-87
2022/05/23 15:12:59;;;;;;;9.60;4.57;;;27.30;68.80;;;;;;5075042;28;20448;-79
2022/05/23 15:15:26;;;;;;;7.83;4.43;;;27.30;68.80;;;;;;5074822;28;20484;-84
2022/05/23 15:17:52;;;;;;;9.40;5.40;;;27.40;68.90;;;;;;5075032;28;20452;-79
2022/05/23 15:20:21;;;;;;;9.40;4.63;;;27.40;68.80;;;;;;5075331;28;20441;-78
2022/05/23 15:22:48;;;;;;;5.60;3.60;;;27.40;69.00;;;;;;5074898;28;20907;-78
2022/05/23 15:25:17;;;;;;;16.40;4.50;;;27.40;69.40;;;;;;5074837;28;20528;-78
2022/05/23 15:27:47;;;;;;;6.77;4.37;;;27.40;69.40;;;;;;5075764;28;20936;-84
2022/05/23 15:30:19;;;;;;;8.00;3.90;;;27.40;69.50;;;;;;5076149;28;20440;-88
2022/05/23 15:32:48;;;;;;;6.93;3.57;;;27.40;69.90;;;;;;5074885;28;20953;-86
2022/05/23 15:35:16;;;;;;;6.60;3.97;;;27.30;69.60;;;;;;5075197;28;20537;-89
2022/05/23 15:37:44;;;;;;;7.83;3.77;;;27.30;69.50;;;;;;5076510;28;20453;-83
2022/05/23 15:40:12;;;;;;;6.90;3.77;;;27.30;69.40;;;;;;5074723;28;20525;-88
2022/05/23 15:42:42;;;;;;;5.57;3.27;;;27.30;69.40;;;;;;5075165;28;20546;-89
2022/05/23 15:45:12;;;;;;;8.03;3.40;;;27.30;69.30;;;;;;5074357;28;20486;-86
2022/05/23 15:47:40;;;;;;;5.63;3.07;;;27.30;69.60;;;;;;5074643;28;20931;-91
2022/05/23 15:50:09;;;;;;;3.77;3.00;;;27.30;69.60;;;;;;5082715;28;20501;-85
2022/05/23 15:52:36;;;;;;;5.70;2.70;;;27.30;70.00;;;;;;5094685;28;20443;-88
2022/05/23 15:55:04;;;;;;;3.00;2.70;;;27.20;70.30;;;;;;5094525;28;20797;-93
2022/05/23 15:57:34;;;;;;;3.80;3.13;;;27.20;70.50;;;;;;5094627;28;20451;-85
2022/05/23 16:00:08;;;;;;;5.03;3.57;;;27.20;70.50;;;;;;5094365;28;20441;-84
2022/05/23 16:02:37;;;;;;;4.27;3.07;;;27.20;70.40;;;;;;5094675;28;20448;-85